createdAt,value
2022-12-03T00:00:29.677Z,85.62
2022-12-03T00:01:01.911Z,85.62
2022-12-03T00:01:33.735Z,85.42
2022-12-03T00:02:05.650Z,85.32
2022-12-03T00:02:37.674Z,85.30
2022-12-03T00:03:10.000Z,85.41
2022-12-03T00:03:42.265Z,85.40
2022-12-03T00:04:14.322Z,85.33
2022-12-03T00:04:46.192Z,85.46
2022-12-03T00:05:18.094Z,85.17
2022-12-03T00:05:49.963Z,84.87
2022-12-03T00:06:22.211Z,84.95
2022-12-03T00:06:54.091Z,84.68
2022-12-03T00:07:26.009Z,85.37
2022-12-03T00:07:58.050Z,85.69
2022-12-03T00:08:29.988Z,85.72
2022-12-03T00:09:01.914Z,85.65
2022-12-03T00:09:33.785Z,85.77
2022-12-03T00:10:06.791Z,85.62
2022-12-03T00:10:38.655Z,85.29
2022-12-03T00:11:10.527Z,85.44
2022-12-03T00:11:42.679Z,85.71
2022-12-03T00:12:14.556Z,85.41
2022-12-03T00:12:46.506Z,85.16
2022-12-03T00:13:18.373Z,85.40
2022-12-03T00:13:50.232Z,85.21
2022-12-03T00:14:22.153Z,85.14
2022-12-03T00:14:54.823Z,84.94
2022-12-03T00:15:26.987Z,85.02
2022-12-03T00:15:58.897Z,84.82
2022-12-03T00:16:30.920Z,84.91
2022-12-03T00:17:03.145Z,84.94
2022-12-03T00:17:35.059Z,84.54
2022-12-03T00:18:06.923Z,84.52
2022-12-03T00:18:38.781Z,84.41
2022-12-03T00:19:10.659Z,84.48
2022-12-03T00:19:42.496Z,84.60
2022-12-03T00:20:23.246Z,85.04
2022-12-03T00:20:54.975Z,85.39
2022-12-03T00:21:26.935Z,85.34
2022-12-03T00:21:58.804Z,85.15
2022-12-03T00:22:31.014Z,85.14
2022-12-03T00:23:02.860Z,85.46
2022-12-03T00:23:38.603Z,85.88
2022-12-03T00:24:13.767Z,86.10
2022-12-03T00:24:45.757Z,85.89
2022-12-03T00:25:17.821Z,85.55
2022-12-03T00:25:49.689Z,85.68
2022-12-03T00:26:21.569Z,85.56
2022-12-03T00:26:53.607Z,85.92
2022-12-03T00:27:25.462Z,85.70
2022-12-03T00:27:57.606Z,85.73
2022-12-03T00:28:29.487Z,85.80
2022-12-03T00:29:01.358Z,85.60
2022-12-03T00:29:33.265Z,85.22
2022-12-03T00:30:06.583Z,85.12
2022-12-03T00:30:38.479Z,84.98
2022-12-03T00:31:10.371Z,84.94
2022-12-03T00:31:43.284Z,84.93
2022-12-03T00:32:15.185Z,85.07
2022-12-03T00:32:47.043Z,85.40
2022-12-03T00:33:19.204Z,85.63
2022-12-03T00:33:51.733Z,85.78
2022-12-03T00:34:23.630Z,85.54
2022-12-03T00:34:55.710Z,85.10
2022-12-03T00:35:27.715Z,84.88
2022-12-03T00:35:59.619Z,84.56
2022-12-03T00:36:31.581Z,84.45
2022-12-03T00:37:03.526Z,84.83
2022-12-03T00:37:35.417Z,85.12
2022-12-03T00:38:07.301Z,85.09
2022-12-03T00:38:39.561Z,84.96
2022-12-03T00:39:11.419Z,84.87
2022-12-03T00:39:43.306Z,85.08
2022-12-03T00:40:15.436Z,85.02
2022-12-03T00:40:47.302Z,85.35
2022-12-03T00:41:19.164Z,85.33
2022-12-03T00:41:51.057Z,85.72
2022-12-03T00:42:22.898Z,86.01
2022-12-03T00:42:54.736Z,85.82
2022-12-03T00:43:26.635Z,85.62
2022-12-03T00:43:58.791Z,85.43
2022-12-03T00:44:30.661Z,85.15
2022-12-03T00:45:02.601Z,85.06
2022-12-03T00:45:34.464Z,85.01
2022-12-03T00:46:06.561Z,84.74
2022-12-03T00:46:38.531Z,84.59
2022-12-03T00:47:11.384Z,84.34
2022-12-03T00:47:43.313Z,84.91
2022-12-03T00:48:15.188Z,85.24
2022-12-03T00:48:47.229Z,85.99
2022-12-03T00:49:19.383Z,86.25
2022-12-03T00:49:51.377Z,86.23
2022-12-03T00:50:23.260Z,86.68
2022-12-03T00:50:55.133Z,86.99
2022-12-03T00:51:27.004Z,86.69
2022-12-03T00:51:58.859Z,86.80
2022-12-03T00:52:30.686Z,86.38
2022-12-03T00:53:02.632Z,86.06
2022-12-03T00:53:35.745Z,86.54
2022-12-03T00:54:07.611Z,86.42
2022-12-03T00:54:39.755Z,86.05
2022-12-03T00:55:11.852Z,86.08
2022-12-03T00:55:43.717Z,86.18
2022-12-03T00:56:15.612Z,86.11
2022-12-03T00:56:47.459Z,85.74
2022-12-03T00:57:19.300Z,85.43
2022-12-03T00:57:51.197Z,85.56
2022-12-03T00:58:23.087Z,85.40
2022-12-03T00:58:54.895Z,85.73
2022-12-03T00:59:26.776Z,85.58
2022-12-03T00:59:58.944Z,85.41
2022-12-03T01:00:30.762Z,85.64
2022-12-03T01:01:02.874Z,85.85
2022-12-03T01:01:34.914Z,85.89
2022-12-03T01:02:07.081Z,86.18
2022-12-03T01:02:38.987Z,86.14
2022-12-03T01:03:10.842Z,85.90
2022-12-03T01:03:42.725Z,85.74
2022-12-03T01:04:14.592Z,85.51
2022-12-03T01:04:46.591Z,85.16
2022-12-03T01:05:19.618Z,85.04
2022-12-03T01:05:51.544Z,85.33
2022-12-03T01:06:23.487Z,86.03
2022-12-03T01:06:55.995Z,86.50
2022-12-03T01:07:28.042Z,86.25
2022-12-03T01:08:00.014Z,86.15
2022-12-03T01:08:31.934Z,86.06
2022-12-03T01:09:03.904Z,85.86
2022-12-03T01:09:35.820Z,85.93
2022-12-03T01:10:08.062Z,85.94
2022-12-03T01:10:40.277Z,85.83
2022-12-03T01:11:30.934Z,85.71
2022-12-03T01:12:02.821Z,85.52
2022-12-03T01:12:34.736Z,85.58
2022-12-03T01:13:06.633Z,85.96
2022-12-03T01:13:38.478Z,86.21
2022-12-03T01:14:15.499Z,86.10
2022-12-03T01:14:47.567Z,85.68
2022-12-03T01:15:19.715Z,85.04
2022-12-03T01:15:52.028Z,84.91
2022-12-03T01:16:24.093Z,84.90
2022-12-03T01:16:56.103Z,85.14
2022-12-03T01:17:28.032Z,85.80
2022-12-03T01:17:59.893Z,85.82
2022-12-03T01:18:31.742Z,85.66
2022-12-03T01:19:04.981Z,85.92
2022-12-03T01:19:36.981Z,86.26
2022-12-03T01:20:09.960Z,86.41
2022-12-03T01:20:41.846Z,86.82
2022-12-03T01:21:14.050Z,87.34
2022-12-03T01:21:48.912Z,87.45
2022-12-03T01:22:20.922Z,87.82
2022-12-03T01:22:52.838Z,87.77
2022-12-03T01:23:24.720Z,87.47
2022-12-03T01:23:57.073Z,87.25
2022-12-03T01:24:29.010Z,87.01
2022-12-03T01:25:00.928Z,86.69
2022-12-03T01:25:32.939Z,86.56
2022-12-03T01:26:04.907Z,86.69
2022-12-03T01:26:37.546Z,87.42
2022-12-03T01:27:09.383Z,87.68
2022-12-03T01:27:41.211Z,87.10
2022-12-03T01:28:13.099Z,86.74
2022-12-03T01:28:44.977Z,86.57
2022-12-03T01:29:16.817Z,87.07
2022-12-03T01:29:48.676Z,87.29
2022-12-03T01:30:20.599Z,87.83
2022-12-03T01:31:11.070Z,88.33
2022-12-03T01:32:02.026Z,88.35
2022-12-03T01:32:33.940Z,88.33
2022-12-03T01:33:05.782Z,87.91
2022-12-03T01:33:37.614Z,87.71
2022-12-03T01:34:09.466Z,87.52
2022-12-03T01:34:41.337Z,87.47
2022-12-03T01:35:13.191Z,87.52
2022-12-03T01:35:45.010Z,87.37
2022-12-03T01:36:16.890Z,87.44
2022-12-03T01:36:49.202Z,87.22
2022-12-03T01:37:23.965Z,87.22
2022-12-03T01:37:55.812Z,87.61
2022-12-03T01:38:27.653Z,87.81
2022-12-03T01:38:59.625Z,87.59
2022-12-03T01:39:31.508Z,87.48
2022-12-03T01:40:04.961Z,87.42
2022-12-03T01:40:36.874Z,87.10
2022-12-03T01:41:11.923Z,87.19
2022-12-03T01:41:44.662Z,87.21
2022-12-03T01:42:39.722Z,87.07
2022-12-03T01:43:11.575Z,87.34
2022-12-03T01:43:43.688Z,87.11
2022-12-03T01:44:23.121Z,87.33
2022-12-03T01:44:58.567Z,87.62
2022-12-03T01:45:30.984Z,87.69
2022-12-03T01:46:03.625Z,87.52
2022-12-03T01:46:40.163Z,86.98
2022-12-03T01:47:18.146Z,86.69
2022-12-03T01:47:50.810Z,86.57
2022-12-03T01:48:22.670Z,87.33
2022-12-03T01:48:56.067Z,87.61
2022-12-03T01:49:43.273Z,87.67
2022-12-03T01:50:20.869Z,87.76
2022-12-03T01:50:52.746Z,87.42
2022-12-03T01:51:24.702Z,87.16
2022-12-03T01:51:57.899Z,86.83
2022-12-03T01:52:34.509Z,86.76
2022-12-03T01:53:06.715Z,86.71
2022-12-03T01:53:38.601Z,86.93
2022-12-03T01:54:18.306Z,87.48
2022-12-03T01:54:59.241Z,87.69
2022-12-03T01:55:32.331Z,87.64
2022-12-03T01:56:04.360Z,87.33
2022-12-03T01:56:36.203Z,87.11
2022-12-03T01:57:20.133Z,86.84
2022-12-03T01:57:55.725Z,86.75
2022-12-03T01:58:29.638Z,86.72
2022-12-03T01:59:01.508Z,86.36
2022-12-03T01:59:36.337Z,86.83
2022-12-03T02:00:17.165Z,86.89
2022-12-03T02:00:49.356Z,86.85
2022-12-03T02:01:21.283Z,87.12
2022-12-03T02:01:53.230Z,86.88
2022-12-03T02:02:28.438Z,86.77
2022-12-03T02:03:11.453Z,86.52
2022-12-03T02:03:45.521Z,86.37
2022-12-03T02:04:22.552Z,86.28
2022-12-03T02:04:55.197Z,86.85
2022-12-03T02:05:30.243Z,87.40
2022-12-03T02:06:02.224Z,87.49
2022-12-03T02:06:34.521Z,87.49
2022-12-03T02:07:19.819Z,87.11
2022-12-03T02:07:52.568Z,87.06
2022-12-03T02:08:34.626Z,86.99
2022-12-03T02:09:08.699Z,86.91
2022-12-03T02:09:40.562Z,87.28
2022-12-03T02:10:15.871Z,87.30
2022-12-03T02:10:47.780Z,87.32
2022-12-03T02:11:25.588Z,87.17
2022-12-03T02:11:57.468Z,86.44
2022-12-03T02:12:36.379Z,86.48
2022-12-03T02:13:09.760Z,86.68
2022-12-03T02:13:42.930Z,86.77
2022-12-03T02:14:21.661Z,86.99
2022-12-03T02:14:54.486Z,86.46
2022-12-03T02:15:26.641Z,86.61
2022-12-03T02:15:58.787Z,86.52
2022-12-03T02:16:31.209Z,86.55
2022-12-03T02:17:03.120Z,86.41
2022-12-03T02:17:35.414Z,87.06
2022-12-03T02:18:08.954Z,87.17
2022-12-03T02:18:40.981Z,87.22
2022-12-03T02:19:27.529Z,87.22
2022-12-03T02:20:01.749Z,86.90
2022-12-03T02:20:41.228Z,86.86
2022-12-03T02:21:15.628Z,86.84
2022-12-03T02:22:09.381Z,86.33
2022-12-03T02:23:16.042Z,86.34
2022-12-03T02:24:33.359Z,86.36
2022-12-03T02:25:11.171Z,86.33
2022-12-03T02:25:43.036Z,86.06
2022-12-03T02:26:14.944Z,86.26
2022-12-03T02:26:46.811Z,86.25
2022-12-03T02:27:18.665Z,86.10
2022-12-03T02:27:51.404Z,86.12
2022-12-03T02:28:23.279Z,86.00
2022-12-03T02:28:55.338Z,85.73
2022-12-03T02:29:27.386Z,85.41
2022-12-03T02:29:59.288Z,85.38
2022-12-03T02:30:32.209Z,85.24
2022-12-03T02:31:05.388Z,85.31
2022-12-03T02:31:37.685Z,85.37
2022-12-03T02:32:09.563Z,85.43
2022-12-03T02:32:41.664Z,85.37
2022-12-03T02:33:14.095Z,85.58
2022-12-03T02:33:45.951Z,85.67
2022-12-03T02:34:38.235Z,85.55
2022-12-03T02:35:18.665Z,85.58
2022-12-03T02:35:50.811Z,86.07
2022-12-03T02:36:22.925Z,86.41
2022-12-03T02:36:54.756Z,86.50
2022-12-03T02:37:32.373Z,86.52
2022-12-03T02:38:21.498Z,86.33
2022-12-03T02:38:53.573Z,86.45
2022-12-03T02:39:25.724Z,86.30
2022-12-03T02:40:01.800Z,86.33
2022-12-03T02:40:34.353Z,85.87
2022-12-03T02:41:10.924Z,86.15
2022-12-03T02:42:01.384Z,86.53
2022-12-03T02:42:36.310Z,86.42
2022-12-03T02:43:08.193Z,86.72
2022-12-03T02:43:40.069Z,86.72
2022-12-03T02:44:12.594Z,86.61
2022-12-03T02:44:44.498Z,86.52
2022-12-03T02:45:24.077Z,86.42
2022-12-03T02:45:59.974Z,85.86
2022-12-03T02:46:32.919Z,85.63
2022-12-03T02:47:05.013Z,85.86
2022-12-03T02:47:43.364Z,85.62
2022-12-03T02:48:19.225Z,86.09
2022-12-03T02:48:51.196Z,86.09
2022-12-03T02:49:23.049Z,85.82
2022-12-03T02:49:55.905Z,85.69
2022-12-03T02:50:34.978Z,85.42
2022-12-03T02:51:10.370Z,85.54
2022-12-03T02:51:42.516Z,85.89
2022-12-03T02:52:15.956Z,86.08
2022-12-03T02:52:48.818Z,85.85
2022-12-03T02:53:26.510Z,85.61
2022-12-03T02:53:59.494Z,86.08
2022-12-03T02:54:31.534Z,86.00
2022-12-03T02:55:06.387Z,85.88
2022-12-03T02:55:39.134Z,85.94
2022-12-03T02:56:16.401Z,86.07
2022-12-03T02:56:48.839Z,85.96
2022-12-03T02:57:21.186Z,85.71
2022-12-03T02:57:53.235Z,85.56
2022-12-03T02:58:26.471Z,85.36
2022-12-03T02:59:01.858Z,85.49
2022-12-03T02:59:34.267Z,85.98
2022-12-03T03:00:08.440Z,86.37
2022-12-03T03:00:40.752Z,86.77
2022-12-03T03:01:13.170Z,86.59
2022-12-03T03:01:45.167Z,86.10
2022-12-03T03:02:17.789Z,85.73
2022-12-03T03:02:50.958Z,85.69
2022-12-03T03:03:27.061Z,85.61
2022-12-03T03:03:59.318Z,85.59
2022-12-03T03:04:31.271Z,85.67
2022-12-03T03:05:05.490Z,85.76
2022-12-03T03:05:39.815Z,85.60
2022-12-03T03:06:12.196Z,85.58
2022-12-03T03:06:44.305Z,85.61
2022-12-03T03:07:16.764Z,85.81
2022-12-03T03:07:51.043Z,85.91
2022-12-03T03:08:24.616Z,86.34
2022-12-03T03:08:57.260Z,86.66
2022-12-03T03:09:29.175Z,86.59
2022-12-03T03:10:02.175Z,86.55
2022-12-03T03:10:36.990Z,86.66
2022-12-03T03:11:08.865Z,86.64
2022-12-03T03:11:40.818Z,86.42
2022-12-03T03:12:12.680Z,86.42
2022-12-03T03:12:44.575Z,86.45
2022-12-03T03:13:19.033Z,86.16
2022-12-03T03:13:50.944Z,85.99
2022-12-03T03:14:22.810Z,86.10
2022-12-03T03:14:55.113Z,86.24
2022-12-03T03:15:27.157Z,85.93
2022-12-03T03:15:59.488Z,85.85
2022-12-03T03:16:33.850Z,85.68
2022-12-03T03:17:06.497Z,85.71
2022-12-03T03:17:38.742Z,85.73
2022-12-03T03:18:12.414Z,86.01
2022-12-03T03:18:44.709Z,86.18
2022-12-03T03:19:17.145Z,86.35
2022-12-03T03:19:49.066Z,86.50
2022-12-03T03:20:21.002Z,86.18
2022-12-03T03:20:53.695Z,86.56
2022-12-03T03:21:25.661Z,87.21
2022-12-03T03:21:57.572Z,86.83
2022-12-03T03:22:38.637Z,86.83
2022-12-03T03:23:17.815Z,87.26
2022-12-03T03:23:50.037Z,87.38
2022-12-03T03:24:22.825Z,87.11
2022-12-03T03:24:55.038Z,86.82
2022-12-03T03:25:27.143Z,86.70
2022-12-03T03:26:01.576Z,86.63
2022-12-03T03:26:33.517Z,86.20
2022-12-03T03:27:05.990Z,86.26
2022-12-03T03:27:39.006Z,86.59
2022-12-03T03:28:11.923Z,86.86
2022-12-03T03:28:48.573Z,87.26
2022-12-03T03:29:20.973Z,87.48
2022-12-03T03:29:52.921Z,87.45
2022-12-03T03:30:24.864Z,87.44
2022-12-03T03:30:58.916Z,87.45
2022-12-03T03:31:30.875Z,87.30
2022-12-03T03:32:04.395Z,87.77
2022-12-03T03:32:37.291Z,88.13
2022-12-03T03:33:10.076Z,88.47
2022-12-03T03:33:45.007Z,88.16
2022-12-03T03:34:17.594Z,87.85
2022-12-03T03:34:50.281Z,87.38
2022-12-03T03:35:24.544Z,87.28
2022-12-03T03:35:57.257Z,87.50
2022-12-03T03:36:29.155Z,87.62
2022-12-03T03:37:01.091Z,87.41
2022-12-03T03:37:33.060Z,87.07
2022-12-03T03:38:05.881Z,87.25
2022-12-03T03:38:38.459Z,87.23
2022-12-03T03:39:11.031Z,86.98
2022-12-03T03:39:43.022Z,87.39
2022-12-03T03:40:15.302Z,87.26
2022-12-03T03:40:49.431Z,87.43
2022-12-03T03:41:21.830Z,88.10
2022-12-03T03:41:53.774Z,88.07
2022-12-03T03:42:25.687Z,87.86
2022-12-03T03:42:58.234Z,87.71
2022-12-03T03:43:33.316Z,87.32
2022-12-03T03:44:07.618Z,87.12
2022-12-03T03:44:39.707Z,87.37
2022-12-03T03:45:11.625Z,87.71
2022-12-03T03:45:44.563Z,87.60
2022-12-03T03:46:18.277Z,87.57
2022-12-03T03:46:50.372Z,87.41
2022-12-03T03:47:23.845Z,87.58
2022-12-03T03:47:57.509Z,87.53
2022-12-03T03:48:29.713Z,88.25
2022-12-03T03:49:03.552Z,88.09
2022-12-03T03:49:35.737Z,87.91
2022-12-03T03:50:10.260Z,87.79
2022-12-03T03:50:44.546Z,87.32
2022-12-03T03:51:18.836Z,87.42
2022-12-03T03:51:50.974Z,87.96
2022-12-03T03:52:23.255Z,87.76
2022-12-03T03:52:56.749Z,88.02
2022-12-03T03:53:29.109Z,87.94
2022-12-03T03:54:03.772Z,87.88
2022-12-03T03:54:36.475Z,88.17
2022-12-03T03:55:10.417Z,88.45
2022-12-03T03:55:42.858Z,88.21
2022-12-03T03:56:17.525Z,88.50
2022-12-03T03:56:49.822Z,88.21
2022-12-03T03:57:21.780Z,88.09
2022-12-03T03:57:53.689Z,88.19
2022-12-03T03:58:25.588Z,87.85
2022-12-03T03:58:57.965Z,87.71
2022-12-03T03:59:29.955Z,87.63
2022-12-03T04:00:02.055Z,87.59
2022-12-03T04:00:37.913Z,87.47
2022-12-03T04:01:12.602Z,87.77
2022-12-03T04:01:46.080Z,87.49
2022-12-03T04:02:21.405Z,87.20
2022-12-03T04:02:54.408Z,86.92
2022-12-03T04:03:27.391Z,87.23
2022-12-03T04:04:02.404Z,87.93
2022-12-03T04:04:36.599Z,88.15
2022-12-03T04:05:15.265Z,88.07
2022-12-03T04:05:47.662Z,88.61
2022-12-03T04:06:19.965Z,88.82
2022-12-03T04:06:51.787Z,88.78
2022-12-03T04:07:23.630Z,88.73
2022-12-03T04:07:55.681Z,88.72
2022-12-03T04:08:27.571Z,88.38
2022-12-03T04:08:59.531Z,87.93
2022-12-03T04:09:31.351Z,87.80
2022-12-03T04:10:23.323Z,87.89
2022-12-03T04:11:13.637Z,88.22
2022-12-03T04:12:04.533Z,88.51
2022-12-03T04:13:05.724Z,88.54
2022-12-03T04:13:37.628Z,88.37
2022-12-03T04:14:09.524Z,88.31
2022-12-03T04:14:41.356Z,88.21
2022-12-03T04:15:13.194Z,88.10
2022-12-03T04:15:45.058Z,87.73
2022-12-03T04:16:16.919Z,87.92
2022-12-03T04:16:49.229Z,88.22
2022-12-03T04:17:21.299Z,88.20
2022-12-03T04:18:12.054Z,88.06
2022-12-03T04:18:44.904Z,88.06
2022-12-03T04:19:16.757Z,87.89
2022-12-03T04:19:48.684Z,87.73
2022-12-03T04:20:20.516Z,87.46
2022-12-03T04:21:12.332Z,87.54
2022-12-03T04:22:11.117Z,87.38
2022-12-03T04:22:43.342Z,87.33
2022-12-03T04:23:15.323Z,88.06
2022-12-03T04:23:47.226Z,87.92
2022-12-03T04:24:19.060Z,88.26
2022-12-03T04:24:51.303Z,88.61
2022-12-03T04:25:41.856Z,88.47
2022-12-03T04:26:32.279Z,88.39
2022-12-03T04:27:22.584Z,87.86
2022-12-03T04:28:13.160Z,88.32
2022-12-03T04:28:50.922Z,88.69
2022-12-03T04:29:23.183Z,88.47
2022-12-03T04:29:55.052Z,88.21
2022-12-03T04:30:27.295Z,88.01
2022-12-03T04:30:59.689Z,88.09
2022-12-03T04:31:54.533Z,87.88
2022-12-03T04:32:45.272Z,87.79
2022-12-03T04:33:36.258Z,87.44
2022-12-03T04:34:28.249Z,87.32
2022-12-03T04:35:18.863Z,87.26
2022-12-03T04:35:50.982Z,86.64
2022-12-03T04:36:22.839Z,86.69
2022-12-03T04:36:54.759Z,86.53
2022-12-03T04:37:26.604Z,86.77
2022-12-03T04:37:58.500Z,87.02
2022-12-03T04:38:30.753Z,87.02
2022-12-03T04:39:03.034Z,87.64
2022-12-03T04:39:35.518Z,87.82
2022-12-03T04:40:27.883Z,88.07
2022-12-03T04:41:04.406Z,88.33
2022-12-03T04:41:36.312Z,88.10
2022-12-03T04:42:08.364Z,88.13
2022-12-03T04:42:40.207Z,88.39
2022-12-03T04:43:13.082Z,88.26
2022-12-03T04:44:17.871Z,88.23
2022-12-03T04:44:50.383Z,87.90
2022-12-03T04:45:22.486Z,89.05
2022-12-03T04:45:54.440Z,88.81
2022-12-03T04:46:26.411Z,88.76
2022-12-03T04:46:58.362Z,88.64
2022-12-03T04:47:31.526Z,88.41
2022-12-03T04:48:04.321Z,88.02
2022-12-03T04:48:36.219Z,87.93
2022-12-03T04:49:08.575Z,87.99
2022-12-03T04:49:46.041Z,88.27
2022-12-03T04:50:17.934Z,87.90
2022-12-03T04:50:49.833Z,87.85
2022-12-03T04:51:21.702Z,87.99
2022-12-03T04:51:53.713Z,88.09
2022-12-03T04:52:26.512Z,87.98
2022-12-03T04:52:58.425Z,87.76
2022-12-03T04:53:30.277Z,87.47
2022-12-03T04:54:02.291Z,87.42
2022-12-03T04:54:34.878Z,87.29
2022-12-03T04:55:06.955Z,88.06
2022-12-03T04:55:38.781Z,88.71
2022-12-03T04:56:10.648Z,89.01
2022-12-03T04:56:42.580Z,89.48
2022-12-03T04:57:15.833Z,89.70
2022-12-03T04:57:47.658Z,89.26
2022-12-03T04:58:19.505Z,89.20
2022-12-03T04:58:51.445Z,89.05
2022-12-03T04:59:23.402Z,89.02
2022-12-03T04:59:55.590Z,88.50
2022-12-03T05:00:29.052Z,88.12
2022-12-03T05:01:00.993Z,87.51
2022-12-03T05:01:32.925Z,88.32
2022-12-03T05:02:06.337Z,88.81
2022-12-03T05:02:38.253Z,88.80
2022-12-03T05:03:10.169Z,88.77
2022-12-03T05:03:42.035Z,89.29
2022-12-03T05:04:14.660Z,89.53
2022-12-03T05:04:46.568Z,89.40
2022-12-03T05:05:18.726Z,89.36
2022-12-03T05:05:50.549Z,89.37
2022-12-03T05:06:22.681Z,88.90
2022-12-03T05:06:54.633Z,89.19
2022-12-03T05:07:26.578Z,89.19
2022-12-03T05:07:58.505Z,88.97
2022-12-03T05:08:30.382Z,88.55
2022-12-03T05:09:02.445Z,88.36
2022-12-03T05:09:34.464Z,88.23
2022-12-03T05:10:07.096Z,88.53
2022-12-03T05:10:39.344Z,88.94
2022-12-03T05:11:11.194Z,89.00
2022-12-03T05:11:43.580Z,88.72
2022-12-03T05:12:15.421Z,88.70
2022-12-03T05:12:47.314Z,88.78
2022-12-03T05:13:19.203Z,88.71
2022-12-03T05:13:52.477Z,88.42
2022-12-03T05:14:24.303Z,88.23
2022-12-03T05:14:56.449Z,88.14
2022-12-03T05:15:28.482Z,87.86
2022-12-03T05:16:00.745Z,87.81
2022-12-03T05:16:32.735Z,88.39
2022-12-03T05:17:04.794Z,88.64
2022-12-03T05:17:36.818Z,88.95
2022-12-03T05:18:09.977Z,88.91
2022-12-03T05:18:41.849Z,88.69
2022-12-03T05:19:13.687Z,88.54
2022-12-03T05:20:04.365Z,88.54
2022-12-03T05:20:42.121Z,88.86
2022-12-03T05:21:14.255Z,89.22
2022-12-03T05:21:46.164Z,89.19
2022-12-03T05:22:18.411Z,89.74
2022-12-03T05:22:50.276Z,89.74
2022-12-03T05:23:22.308Z,89.74
2022-12-03T05:23:54.337Z,90.07
2022-12-03T05:24:26.183Z,90.07
2022-12-03T05:24:58.039Z,90.09
2022-12-03T05:25:29.954Z,89.85
2022-12-03T05:26:01.852Z,89.43
2022-12-03T05:26:34.149Z,89.24
2022-12-03T05:27:06.270Z,89.00
2022-12-03T05:27:38.145Z,88.83
2022-12-03T05:28:10.081Z,88.93
2022-12-03T05:28:41.929Z,88.86
2022-12-03T05:29:13.764Z,88.55
2022-12-03T05:29:45.606Z,88.01
2022-12-03T05:30:17.578Z,87.95
2022-12-03T05:30:49.659Z,87.79
2022-12-03T05:31:21.639Z,88.10
2022-12-03T05:31:53.842Z,88.29
2022-12-03T05:32:25.705Z,88.47
2022-12-03T05:32:57.683Z,88.52
2022-12-03T05:33:29.612Z,88.47
2022-12-03T05:34:01.434Z,88.61
2022-12-03T05:34:33.303Z,88.53
2022-12-03T05:35:05.549Z,88.37
2022-12-03T05:35:37.432Z,88.14
2022-12-03T05:36:09.523Z,88.03
2022-12-03T05:36:41.461Z,88.12
2022-12-03T05:37:13.667Z,87.97
2022-12-03T05:37:45.635Z,88.00
2022-12-03T05:38:17.540Z,88.18
2022-12-03T05:38:49.480Z,87.84
2022-12-03T05:39:21.388Z,87.56
2022-12-03T05:39:53.246Z,87.37
2022-12-03T05:40:25.299Z,87.16
2022-12-03T05:40:57.127Z,87.25
2022-12-03T05:41:47.961Z,87.43
2022-12-03T05:42:38.905Z,87.35
2022-12-03T05:43:10.795Z,87.23
2022-12-03T05:43:42.684Z,88.02
2022-12-03T05:44:20.117Z,88.12
2022-12-03T05:44:52.778Z,88.36
2022-12-03T05:45:28.103Z,88.53
2022-12-03T05:46:00.012Z,88.59
2022-12-03T05:46:35.000Z,88.70
2022-12-03T05:47:06.946Z,88.68
2022-12-03T05:47:41.746Z,88.57
2022-12-03T05:48:15.624Z,88.87
2022-12-03T05:48:47.476Z,90.84
2022-12-03T05:49:19.334Z,89.88
2022-12-03T05:49:51.178Z,89.53
2022-12-03T05:50:26.020Z,89.46
2022-12-03T05:51:00.119Z,89.21
2022-12-03T05:51:31.921Z,89.00
2022-12-03T05:52:04.017Z,88.67
2022-12-03T05:52:35.872Z,88.91
2022-12-03T05:53:08.078Z,88.78
2022-12-03T05:53:40.020Z,88.57
2022-12-03T05:54:11.957Z,88.70
2022-12-03T05:54:43.846Z,88.97
2022-12-03T05:55:16.615Z,92.19
2022-12-03T05:55:48.444Z,90.78
2022-12-03T05:56:20.280Z,89.83
2022-12-03T05:56:52.161Z,89.31
2022-12-03T05:57:24.106Z,89.33
2022-12-03T05:57:56.016Z,89.45
2022-12-03T05:58:28.574Z,89.56
2022-12-03T05:59:01.699Z,89.08
2022-12-03T05:59:33.524Z,89.34
2022-12-03T06:00:11.282Z,89.09
2022-12-03T06:00:44.454Z,89.11
2022-12-03T06:01:16.901Z,89.28
2022-12-03T06:01:48.926Z,89.19
2022-12-03T06:02:22.273Z,88.95
2022-12-03T06:02:55.084Z,88.74
2022-12-03T06:03:27.238Z,88.61
2022-12-03T06:04:00.277Z,88.82
2022-12-03T06:04:32.254Z,89.07
2022-12-03T06:05:04.386Z,89.03
2022-12-03T06:05:36.291Z,89.10
2022-12-03T06:06:08.191Z,88.84
2022-12-03T06:06:40.364Z,88.23
2022-12-03T06:07:14.076Z,88.30
2022-12-03T06:07:47.160Z,88.43
2022-12-03T06:08:19.075Z,88.28
2022-12-03T06:08:50.977Z,89.01
2022-12-03T06:09:22.811Z,88.66
2022-12-03T06:09:54.729Z,88.21
2022-12-03T06:10:27.310Z,88.26
2022-12-03T06:10:59.567Z,88.03
2022-12-03T06:11:34.101Z,88.10
2022-12-03T06:12:07.027Z,88.06
2022-12-03T06:12:38.928Z,88.02
2022-12-03T06:13:11.690Z,88.14
2022-12-03T06:13:43.560Z,88.03
2022-12-03T06:14:15.596Z,87.99
2022-12-03T06:14:47.463Z,88.67
2022-12-03T06:15:20.313Z,88.95
2022-12-03T06:15:52.199Z,88.93
2022-12-03T06:16:24.213Z,88.51
2022-12-03T06:16:56.172Z,88.11
2022-12-03T06:17:28.515Z,88.01
2022-12-03T06:18:00.454Z,88.02
2022-12-03T06:18:32.325Z,87.91
2022-12-03T06:19:04.192Z,88.11
2022-12-03T06:19:36.048Z,88.33
2022-12-03T06:20:09.081Z,88.17
2022-12-03T06:20:41.068Z,88.20
2022-12-03T06:21:13.137Z,88.29
2022-12-03T06:21:46.711Z,88.37
2022-12-03T06:22:19.191Z,88.39
2022-12-03T06:22:51.318Z,88.43
2022-12-03T06:23:23.259Z,88.66
2022-12-03T06:23:55.123Z,88.58
2022-12-03T06:24:26.984Z,88.18
2022-12-03T06:25:04.900Z,88.62
2022-12-03T06:25:38.650Z,88.84
2022-12-03T06:26:11.719Z,88.71
2022-12-03T06:26:43.590Z,88.31
2022-12-03T06:27:15.500Z,88.43
2022-12-03T06:27:47.325Z,88.86
2022-12-03T06:28:19.468Z,89.12
2022-12-03T06:28:51.336Z,88.85
2022-12-03T06:29:23.174Z,88.68
2022-12-03T06:29:55.023Z,88.30
2022-12-03T06:30:26.987Z,88.18
2022-12-03T06:30:58.952Z,87.97
2022-12-03T06:31:30.921Z,87.81
2022-12-03T06:32:03.887Z,88.01
2022-12-03T06:32:35.900Z,87.84
2022-12-03T06:33:07.753Z,87.74
2022-12-03T06:33:39.953Z,87.36
2022-12-03T06:34:11.777Z,87.46
2022-12-03T06:34:45.713Z,87.54
2022-12-03T06:35:17.630Z,87.80
2022-12-03T06:35:49.451Z,87.73
2022-12-03T06:36:23.285Z,87.97
2022-12-03T06:36:55.401Z,87.77
2022-12-03T06:37:27.786Z,88.90
2022-12-03T06:37:59.707Z,88.79
2022-12-03T06:38:31.595Z,88.77
2022-12-03T06:39:03.827Z,88.66
2022-12-03T06:39:36.402Z,88.50
2022-12-03T06:40:08.751Z,88.45
2022-12-03T06:40:40.595Z,88.34
2022-12-03T06:41:12.608Z,88.43
2022-12-03T06:41:44.510Z,88.80
2022-12-03T06:42:16.397Z,88.98
2022-12-03T06:42:48.211Z,88.42
2022-12-03T06:43:20.050Z,87.97
2022-12-03T06:43:51.913Z,87.99
2022-12-03T06:44:24.078Z,88.03
2022-12-03T06:44:56.151Z,88.04
2022-12-03T06:45:28.159Z,87.93
2022-12-03T06:46:00.073Z,87.53
2022-12-03T06:46:32.105Z,87.85
2022-12-03T06:47:04.138Z,88.16
2022-12-03T06:47:36.066Z,88.27
2022-12-03T06:48:08.363Z,87.83
2022-12-03T06:48:40.173Z,87.91
2022-12-03T06:49:12.006Z,88.11
2022-12-03T06:49:44.221Z,88.49
2022-12-03T06:50:16.313Z,88.68
2022-12-03T06:50:48.235Z,88.47
2022-12-03T06:51:20.074Z,88.68
2022-12-03T06:51:51.889Z,88.69
2022-12-03T06:52:24.095Z,88.61
2022-12-03T06:52:57.243Z,88.25
2022-12-03T06:53:31.016Z,87.90
2022-12-03T06:54:03.920Z,87.77
2022-12-03T06:54:35.790Z,87.83
2022-12-03T06:55:08.415Z,87.60
2022-12-03T06:55:40.254Z,87.74
2022-12-03T06:56:12.192Z,87.80
2022-12-03T06:56:45.583Z,87.74
2022-12-03T06:57:17.668Z,87.85
2022-12-03T06:57:49.864Z,88.10
2022-12-03T06:58:21.764Z,88.32
2022-12-03T06:58:53.909Z,88.46
2022-12-03T06:59:26.340Z,88.65
2022-12-03T06:59:58.437Z,88.40
2022-12-03T07:00:30.828Z,88.37
2022-12-03T07:01:02.726Z,88.42
2022-12-03T07:01:34.646Z,88.19
2022-12-03T07:02:06.895Z,88.38
2022-12-03T07:02:39.056Z,88.66
2022-12-03T07:03:11.190Z,88.07
2022-12-03T07:03:43.119Z,87.65
2022-12-03T07:04:15.164Z,87.61
2022-12-03T07:04:47.117Z,87.65
2022-12-03T07:05:19.792Z,87.67
2022-12-03T07:05:52.178Z,87.92
2022-12-03T07:06:24.068Z,87.81
2022-12-03T07:06:56.359Z,88.03
2022-12-03T07:07:28.375Z,88.21
2022-12-03T07:08:00.826Z,88.15
2022-12-03T07:08:33.208Z,88.02
2022-12-03T07:09:05.133Z,88.07
2022-12-03T07:09:37.020Z,88.09
2022-12-03T07:10:09.365Z,87.92
2022-12-03T07:10:41.551Z,87.85
2022-12-03T07:11:32.271Z,87.52
2022-12-03T07:12:04.196Z,87.46
2022-12-03T07:12:36.219Z,87.17
2022-12-03T07:13:08.283Z,87.34